Time;durP1;ratioP1;P1;durP2;ratioP2;P2;SDS_P1;SDS_P2;PMS_P1;PMS_P2;Temp;Humidity;BMP_temperature;BMP_pressure;BME280_temperature;BME280_humidity;BME280_pressure;Samples;Min_cycle;Max_cycle;Signal;HPM_P1;HPM_P2
2022/03/01 00:00:57;;;;;;;9.70;6.05;;;4.10;99.90;;;4.17;nan;101967.56;4993836;28;20202;-65
2022/03/01 00:03:25;;;;;;;8.57;5.88;;;4.00;99.90;;;4.19;nan;101976.13;5019338;28;20714;-65
2022/03/01 00:05:52;;;;;;;16.30;7.30;;;3.90;99.90;;;4.20;nan;101977.78;5013199;28;20230;-66
2022/03/01 00:08:19;;;;;;;14.15;7.45;;;3.90;99.90;;;4.20;nan;101970.91;5013779;28;20748;-66
2022/03/01 00:10:46;;;;;;;12.70;6.78;;;3.90;99.90;;;4.14;nan;101981.38;4998398;28;20289;-66
2022/03/01 00:13:13;;;;;;;12.63;6.75;;;3.90;99.90;;;4.15;nan;101988.25;5030310;28;20226;-66
2022/03/01 00:15:40;;;;;;;10.52;5.40;;;3.90;99.90;;;4.13;nan;101989.19;5031636;28;20209;-66
2022/03/01 00:18:07;;;;;;;14.10;8.20;;;3.90;99.90;;;4.02;nan;101984.28;5024020;28;20207;-65
2022/03/01 00:20:34;;;;;;;11.00;6.55;;;3.80;99.90;;;3.99;nan;101993.81;5012112;28;20198;-66
2022/03/01 00:23:01;;;;;;;13.43;7.25;;;3.70;99.90;;;3.81;nan;101983.00;5012658;28;20748;-66
2022/03/01 00:25:28;;;;;;;13.88;7.00;;;3.60;99.90;;;3.80;nan;101994.25;4979677;28;20209;-67
2022/03/01 00:27:55;;;;;;;15.13;7.22;;;3.50;99.90;;;3.83;nan;101998.50;4997167;28;20554;-66
2022/03/01 00:30:22;;;;;;;7.72;4.18;;;3.50;99.90;;;3.82;nan;102001.94;5013086;28;20588;-66
2022/03/01 00:32:49;;;;;;;14.77;7.50;;;3.60;99.90;;;3.76;nan;102002.94;5030605;28;20717;-66
2022/03/01 00:35:17;;;;;;;10.25;5.72;;;3.50;99.90;;;3.65;nan;102002.31;5012446;28;20213;-66
2022/03/01 00:37:44;;;;;;;9.95;5.22;;;3.40;99.90;;;3.65;nan;101997.16;5013962;28;20202;-66
2022/03/01 00:40:12;;;;;;;10.32;5.63;;;3.40;99.90;;;3.58;nan;101999.88;5006150;28;20207;-65
2022/03/01 00:42:39;;;;;;;0.50;0.50;;;3.40;99.90;;;3.37;nan;102008.09;4995253;28;20226;-66
2022/03/01 00:45:07;;;;;;;12.25;7.15;;;3.40;99.90;;;3.44;nan;102004.50;5030779;28;20214;-66
2022/03/01 00:47:34;;;;;;;6.82;3.63;;;3.30;99.90;;;3.47;nan;102007.03;5013941;28;20238;-65
2022/03/01 00:50:03;;;;;;;13.88;7.53;;;3.30;99.90;;;3.52;nan;102013.78;5005743;28;20209;-65
2022/03/01 00:52:30;;;;;;;12.90;7.35;;;3.30;99.90;;;3.48;nan;102013.88;5021300;28;20720;-66
2022/03/01 00:54:57;;;;;;;9.90;5.00;;;3.20;99.90;;;3.44;nan;102017.41;5011746;28;20209;-65
2022/03/01 00:57:24;;;;;;;8.55;5.80;;;3.20;99.90;;;3.37;nan;102019.25;5011739;28;20199;-66
2022/03/01 00:59:51;;;;;;;15.82;7.97;;;3.20;99.90;;;3.32;nan;102017.66;5010441;28;20221;-66
2022/03/01 01:02:18;;;;;;;10.00;5.53;;;3.10;99.90;;;3.29;nan;102022.88;5011512;28;20570;-66
2022/03/01 01:04:45;;;;;;;17.67;7.90;;;3.00;99.90;;;3.35;nan;102020.16;5007421;28;20198;-66
2022/03/01 01:07:12;;;;;;;8.52;4.70;;;3.10;99.90;;;3.34;nan;102018.47;5011710;28;20219;-66
2022/03/01 01:09:39;;;;;;;16.42;6.90;;;3.10;99.90;;;3.37;nan;102013.25;5029599;28;20208;-66
2022/03/01 01:12:10;;;;;;;13.05;6.60;;;3.10;99.90;;;3.31;nan;102024.56;5032311;28;20590;-66
2022/03/01 01:14:37;;;;;;;8.30;5.15;;;3.10;99.90;;;3.30;nan;102017.66;5033441;28;20194;-66
2022/03/01 01:17:04;;;;;;;9.77;6.22;;;3.00;99.90;;;3.34;nan;102011.59;4980320;28;20203;-66
2022/03/01 01:19:31;;;;;;;9.35;5.50;;;3.10;99.90;;;3.38;nan;102010.66;5025570;28;20789;-65
2022/03/01 01:24:44;;;;;;;11.45;5.65;;;3.10;99.90;;;3.70;nan;102012.53;5036071;28;20588;-65
2022/03/01 01:27:14;;;;;;;3.47;2.88;;;3.40;99.90;;;3.87;nan;102011.31;5003453;28;20246;-66
2022/03/01 01:29:41;;;;;;;7.30;3.83;;;3.60;99.90;;;4.00;nan;102009.28;5019784;28;20202;-65
2022/03/01 01:32:08;;;;;;;4.55;2.58;;;3.70;99.70;;;4.12;nan;102010.72;4998124;28;20210;-66
2022/03/01 01:34:35;;;;;;;3.22;2.88;;;3.80;98.50;;;4.26;nan;102009.50;5015746;28;20638;-65
2022/03/01 01:37:02;;;;;;;4.80;2.22;;;3.90;97.10;;;4.33;nan;102008.47;5034567;28;20264;-66
2022/03/01 01:39:29;;;;;;;3.53;2.90;;;4.00;96.70;;;4.38;nan;102006.63;5016904;28;20214;-66
2022/03/01 01:41:56;;;;;;;12.85;4.82;;;4.10;96.60;;;4.26;nan;102014.66;5032406;28;20213;-65
2022/03/01 01:44:23;;;;;;;14.20;6.97;;;4.00;97.40;;;4.23;nan;102011.31;5032529;28;20218;-65
2022/03/01 01:46:50;;;;;;;10.82;6.40;;;3.90;98.80;;;4.09;nan;102018.56;5033045;28;20274;-66
2022/03/01 01:49:19;;;;;;;15.38;7.78;;;3.90;99.90;;;4.04;nan;102028.13;5031731;28;20217;-66
2022/03/01 01:51:46;;;;;;;16.75;8.20;;;3.80;99.90;;;3.84;nan;102024.28;5007761;28;20194;-66
2022/03/01 01:54:13;;;;;;;13.60;7.70;;;3.70;99.90;;;3.76;nan;102021.00;5014165;28;20283;-65
2022/03/01 01:56:41;;;;;;;7.70;5.78;;;3.50;99.90;;;3.67;nan;102021.19;5004130;28;20207;-66
2022/03/01 01:59:08;;;;;;;11.23;6.05;;;3.40;99.90;;;3.61;nan;102015.31;4999943;28;20257;-65
2022/03/01 02:01:35;;;;;;;8.18;5.13;;;3.30;99.90;;;3.55;nan;102018.03;5011076;28;20213;-66
2022/03/01 02:04:03;;;;;;;9.02;4.55;;;3.30;99.90;;;3.48;nan;102019.03;5025997;28;20226;-66
2022/03/01 02:06:30;;;;;;;10.65;5.88;;;3.20;99.90;;;3.34;nan;102021.91;5000073;28;20700;-65
2022/03/01 02:08:57;;;;;;;9.00;5.30;;;3.10;99.90;;;3.34;nan;102021.06;4995542;28;20195;-65
2022/03/01 02:11:27;;;;;;;7.90;4.45;;;3.10;99.90;;;3.26;nan;102020.38;5022944;28;20217;-66
2022/03/01 02:13:54;;;;;;;11.90;5.78;;;3.00;99.90;;;3.29;nan;102022.88;5020424;28;20218;-66
2022/03/01 02:16:21;;;;;;;6.80;3.90;;;3.00;99.90;;;3.34;nan;102016.75;5021544;28;20206;-65
2022/03/01 02:18:49;;;;;;;3.15;2.70;;;3.10;99.90;;;3.41;nan;102010.56;4995363;28;20206;-66
2022/03/01 02:21:16;;;;;;;7.90;4.35;;;3.20;99.90;;;3.49;nan;102010.44;5005930;28;20552;-66
2022/03/01 02:23:43;;;;;;;9.45;4.97;;;3.20;99.90;;;3.47;nan;102012.19;5033198;28;20238;-66
2022/03/01 02:26:10;;;;;;;7.10;4.60;;;3.20;99.90;;;3.48;nan;102021.63;5028605;28;20242;-66
2022/03/01 02:28:37;;;;;;;8.70;4.38;;;3.20;99.90;;;3.41;nan;102018.31;5014951;28;20198;-66
2022/03/01 02:31:04;;;;;;;12.43;5.55;;;3.20;99.90;;;3.43;nan;102002.81;5031350;28;20198;-66
2022/03/01 02:33:31;;;;;;;6.38;4.35;;;3.20;99.90;;;3.42;nan;102009.72;5031830;28;20706;-66
2022/03/01 02:35:58;;;;;;;4.18;3.38;;;3.10;99.90;;;3.39;nan;102011.47;5014282;28;20206;-66
2022/03/01 02:38:25;;;;;;;10.60;5.05;;;3.10;99.90;;;3.41;nan;102012.31;4999735;28;20198;-65
2022/03/01 02:40:52;;;;;;;8.23;4.10;;;3.10;99.90;;;3.27;nan;102012.59;5014921;28;20240;-66
2022/03/01 02:43:19;;;;;;;10.93;5.90;;;3.00;99.90;;;3.15;nan;102005.94;5013833;28;20229;-65
2022/03/01 02:45:46;;;;;;;7.97;4.78;;;2.90;99.90;;;3.20;nan;101997.25;5032871;28;20203;-66
2022/03/01 02:48:13;;;;;;;10.02;5.10;;;2.90;99.90;;;3.23;nan;102012.69;5031007;28;20284;-65
2022/03/01 02:50:40;;;;;;;7.25;4.45;;;3.00;99.90;;;3.32;nan;101997.03;5007564;28;20207;-65
2022/03/01 02:53:07;;;;;;;10.30;5.70;;;3.00;99.90;;;3.30;nan;102006.53;4998530;28;20226;-66
2022/03/01 02:55:37;;;;;;;13.95;6.70;;;3.00;99.90;;;3.20;nan;102002.41;5033631;28;20210;-65
2022/03/01 02:58:04;;;;;;;11.88;5.85;;;3.00;99.90;;;3.21;nan;102004.13;4994397;28;20207;-65
2022/03/01 03:00:31;;;;;;;9.52;4.93;;;2.90;99.90;;;3.19;nan;102005.88;5012489;28;20198;-65
2022/03/01 03:02:58;;;;;;;12.63;5.93;;;2.90;99.90;;;3.09;nan;102007.78;5001155;28;20232;-65
2022/03/01 03:05:25;;;;;;;7.80;5.00;;;2.90;99.90;;;3.01;nan;102001.94;5015033;28;20213;-66
2022/03/01 03:07:52;;;;;;;7.40;4.97;;;2.80;99.90;;;2.82;nan;102004.00;5012145;28;20227;-66
2022/03/01 03:10:19;;;;;;;11.50;5.70;;;2.70;99.90;;;2.77;nan;101998.06;4995674;28;20214;-65
2022/03/01 03:12:46;;;;;;;5.70;3.95;;;2.60;99.90;;;2.74;nan;101997.28;4997788;28;20226;-65
2022/03/01 03:15:13;;;;;;;15.63;7.50;;;2.60;99.90;;;2.58;nan;102006.19;5015446;28;20201;-65
2022/03/01 03:17:41;;;;;;;11.23;5.50;;;2.50;99.90;;;2.57;nan;102000.19;5013088;28;20205;-65
2022/03/01 03:20:08;;;;;;;9.80;6.00;;;2.40;99.90;;;2.56;nan;102007.91;5032647;28;20198;-65
2022/03/01 03:22:36;;;;;;;7.75;5.28;;;2.30;99.90;;;2.52;nan;101998.53;5014397;28;20226;-65
2022/03/01 03:25:04;;;;;;;8.57;5.25;;;2.30;99.90;;;2.50;nan;101998.56;5014013;28;20210;-66
2022/03/01 03:27:31;;;;;;;7.38;4.85;;;2.30;99.90;;;2.51;nan;101995.13;5020857;28;20233;-65
2022/03/01 03:29:58;;;;;;;10.32;5.68;;;2.30;99.90;;;2.38;nan;101995.34;4998232;28;20574;-65
2022/03/01 03:32:25;;;;;;;9.95;5.78;;;2.20;99.90;;;2.35;nan;101994.53;5030104;28;20209;-65
2022/03/01 03:34:52;;;;;;;12.95;6.00;;;2.20;99.90;;;2.30;nan;101986.03;5030003;28;20640;-65
2022/03/01 03:37:19;;;;;;;10.02;5.22;;;2.10;99.90;;;2.20;nan;101983.63;5030882;28;20678;-66
2022/03/01 03:39:46;;;;;;;8.90;4.88;;;2.00;99.90;;;2.17;nan;101989.66;5012682;28;20210;-65
2022/03/01 03:42:13;;;;;;;10.32;4.97;;;2.00;99.90;;;2.10;nan;101987.22;5030856;28;20210;-65
2022/03/01 03:44:40;;;;;;;7.90;4.47;;;2.00;99.90;;;2.01;nan;101984.78;4998298;28;20213;-66
2022/03/01 03:47:07;;;;;;;9.40;5.72;;;1.90;99.90;;;2.06;nan;101985.59;5030360;28;20226;-65
2022/03/01 03:49:34;;;;;;;6.28;4.10;;;1.90;99.90;;;2.05;nan;101984.72;5005263;28;20226;-65
2022/03/01 03:52:03;;;;;;;10.27;5.22;;;1.90;99.90;;;2.01;nan;101995.94;5022212;28;20209;-65
2022/03/01 03:54:30;;;;;;;8.07;3.97;;;1.80;99.90;;;1.92;nan;101992.66;5013882;28;20230;-65
2022/03/01 03:56:57;;;;;;;9.30;5.45;;;1.80;99.90;;;1.90;nan;101994.38;5009011;28;20549;-65
2022/03/01 03:59:25;;;;;;;11.90;6.05;;;1.70;99.90;;;1.87;nan;101986.72;5011347;28;20610;-65
2022/03/01 04:01:52;;;;;;;15.85;7.50;;;1.70;99.90;;;1.87;nan;101989.31;5008927;28;20210;-66
2022/03/01 04:04:19;;;;;;;8.10;5.68;;;1.70;99.90;;;1.78;nan;101992.00;4993321;28;20223;-65
2022/03/01 04:06:46;;;;;;;7.95;5.10;;;1.60;99.90;;;1.84;nan;101991.91;4997388;28;20229;-65
2022/03/01 04:09:14;;;;;;;11.35;5.53;;;1.60;99.90;;;1.87;nan;101986.72;5029756;28;20198;-65
2022/03/01 04:11:41;;;;;;;8.80;4.43;;;1.70;99.90;;;1.89;nan;101985.84;5010369;28;20206;-65
2022/03/01 04:14:08;;;;;;;10.13;5.75;;;1.70;99.90;;;1.91;nan;101991.81;4993356;28;20227;-65
2022/03/01 04:16:35;;;;;;;12.00;5.35;;;1.70;99.90;;;1.90;nan;101990.09;5010995;28;20202;-65
2022/03/01 04:19:02;;;;;;;9.23;4.90;;;1.70;99.90;;;1.90;nan;101984.94;5011829;28;20198;-65
2022/03/01 04:21:29;;;;;;;8.68;5.38;;;1.70;99.90;;;1.94;nan;101994.31;5020477;28;20202;-65
2022/03/01 04:23:56;;;;;;;7.63;4.75;;;1.80;99.90;;;1.98;nan;101993.41;4992986;28;20300;-65
2022/03/01 04:26:23;;;;;;;11.80;4.55;;;1.80;99.90;;;1.98;nan;101988.25;5004810;28;20202;-65
2022/03/01 04:28:50;;;;;;;8.63;4.95;;;1.80;99.90;;;1.95;nan;101980.59;4992803;28;20198;-65
2022/03/01 04:31:17;;;;;;;5.50;3.55;;;1.80;99.90;;;1.99;nan;101982.25;4996355;28;20221;-65
2022/03/01 04:33:44;;;;;;;6.10;3.35;;;1.80;99.90;;;2.04;nan;101971.88;5010962;28;20230;-65
2022/03/01 04:36:11;;;;;;;10.63;4.75;;;1.80;99.90;;;2.08;nan;101971.81;5015786;28;20620;-65
2022/03/01 04:38:39;;;;;;;5.95;2.95;;;1.90;99.90;;;2.06;nan;101978.72;5010267;28;20206;-65
2022/03/01 04:41:07;;;;;;;9.73;4.25;;;1.90;99.90;;;2.08;nan;101973.53;4993655;28;20265;-65
2022/03/01 04:43:34;;;;;;;13.18;5.45;;;1.90;99.90;;;2.05;nan;101977.00;5019293;28;20578;-65
2022/03/01 04:46:01;;;;;;;11.07;5.25;;;1.90;99.90;;;2.08;nan;101963.25;5005143;28;20272;-65
2022/03/01 04:48:29;;;;;;;7.95;4.43;;;1.90;99.90;;;2.05;nan;101964.13;4995444;28;20232;-65
2022/03/01 04:50:57;;;;;;;5.82;3.67;;;1.80;99.90;;;2.09;nan;101964.91;5008133;28;20209;-65
2022/03/01 04:53:24;;;;;;;5.28;3.47;;;1.90;99.90;;;2.10;nan;101962.34;5004084;28;20226;-65
2022/03/01 04:55:51;;;;;;;7.00;4.47;;;1.90;99.90;;;2.02;nan;101969.31;5022432;28;20663;-65
2022/03/01 04:58:18;;;;;;;5.72;2.78;;;1.80;99.90;;;2.08;nan;101965.81;5012889;28;20561;-66
2022/03/01 05:00:45;;;;;;;5.95;3.80;;;1.90;99.90;;;2.03;nan;101965.88;5011515;28;20217;-66
2022/03/01 05:03:13;;;;;;;10.07;4.65;;;1.80;99.90;;;2.09;nan;101970.06;5027876;28;20228;-66
2022/03/01 05:05:40;;;;;;;9.07;4.63;;;1.90;99.90;;;2.12;nan;101970.03;5022484;28;20264;-66
2022/03/01 05:08:08;;;;;;;7.05;4.15;;;1.90;99.90;;;2.08;nan;101968.38;5006033;28;20234;-66
2022/03/01 05:10:35;;;;;;;3.53;3.00;;;1.90;99.90;;;2.11;nan;101976.03;5010492;28;20206;-66
2022/03/01 05:13:05;;;;;;;6.60;3.90;;;1.90;99.90;;;2.11;nan;101969.19;5011548;28;20788;-66
2022/03/01 05:15:50;;;;;;;6.07;3.95;;;1.90;99.90;;;2.11;nan;101978.63;4993734;28;20194;-66
2022/03/01 05:18:17;;;;;;;11.98;5.40;;;1.90;99.90;;;2.04;nan;101974.47;5010092;28;20211;-67
2022/03/01 05:20:44;;;;;;;5.20;3.63;;;1.90;99.90;;;1.97;nan;101981.44;5022951;28;20214;-67
2022/03/01 05:23:11;;;;;;;5.75;3.78;;;1.70;99.90;;;1.96;nan;101982.28;5008113;28;20240;-67
2022/03/01 05:25:38;;;;;;;7.93;4.88;;;1.80;99.90;;;1.99;nan;101981.38;4993300;28;20202;-67
2022/03/01 05:28:05;;;;;;;5.65;4.47;;;1.80;99.90;;;2.00;nan;101983.09;5020640;28;20737;-67
2022/03/01 05:30:32;;;;;;;7.30;4.32;;;1.80;99.90;;;2.01;nan;101990.81;5027331;28;20206;-66
2022/03/01 05:32:59;;;;;;;8.43;4.65;;;1.80;99.90;;;1.96;nan;101984.84;4996163;28;20214;-67
2022/03/01 05:35:29;;;;;;;7.05;4.75;;;1.70;99.90;;;1.98;nan;101997.72;5026095;28;20212;-67
2022/03/01 05:37:57;;;;;;;11.77;5.53;;;1.80;99.90;;;1.90;nan;101996.97;4993161;28;20918;-67
2022/03/01 05:40:29;;;;;;;10.13;4.97;;;1.70;99.90;;;1.87;nan;101999.59;4997051;28;20202;-67
2022/03/01 05:42:57;;;;;;;11.30;5.20;;;1.70;99.90;;;1.86;nan;102003.03;5012112;28;20237;-67
2022/03/01 05:45:25;;;;;;;10.38;4.75;;;1.70;99.90;;;1.82;nan;102002.25;5011746;28;20202;-67
2022/03/01 05:47:53;;;;;;;6.68;4.88;;;1.70;99.90;;;1.81;nan;102004.84;5011637;28;20236;-67
2022/03/01 05:50:21;;;;;;;11.90;5.55;;;1.70;99.90;;;1.73;nan;102004.06;5022299;28;20194;-66
2022/03/01 05:52:49;;;;;;;12.55;5.60;;;1.60;99.90;;;1.73;nan;102004.06;4994515;28;20729;-66
2022/03/01 05:55:17;;;;;;;7.93;4.75;;;1.50;99.90;;;1.79;nan;102011.75;4985497;28;20199;-66
2022/03/01 05:57:44;;;;;;;8.63;5.03;;;1.60;99.90;;;1.78;nan;102010.03;5011899;28;20786;-67
2022/03/01 06:00:18;;;;;;;11.82;4.85;;;1.60;99.90;;;1.79;nan;102019.47;5019210;28;20697;-67
2022/03/01 06:02:47;;;;;;;12.45;5.28;;;1.60;99.90;;;1.78;nan;102021.16;5006712;28;20333;-67
2022/03/01 06:05:15;;;;;;;9.05;5.10;;;1.70;99.90;;;1.71;nan;102010.97;4995821;28;20207;-66
2022/03/01 06:07:43;;;;;;;8.93;4.82;;;1.60;99.90;;;1.66;nan;102008.47;5011851;28;20226;-66
2022/03/01 06:10:11;;;;;;;8.38;5.10;;;1.50;99.90;;;1.64;nan;102017.09;5029893;28;20229;-66
2022/03/01 06:12:38;;;;;;;10.30;5.57;;;1.50;99.90;;;1.67;nan;102014.47;4995930;28;20222;-67
2022/03/01 06:15:06;;;;;;;11.73;5.00;;;1.50;99.90;;;1.69;nan;102010.13;4980228;28;20199;-67
2022/03/01 06:17:33;;;;;;;6.72;4.15;;;1.50;99.90;;;1.73;nan;102011.78;4995968;28;20580;-67
2022/03/01 06:20:01;;;;;;;11.55;5.63;;;1.50;99.90;;;1.68;nan;102011.03;5014851;28;20214;-66
2022/03/01 06:22:29;;;;;;;10.32;5.75;;;1.60;99.90;;;1.70;nan;102011.84;5024140;28;20233;-67
2022/03/01 06:24:57;;;;;;;11.90;6.45;;;1.60;99.90;;;1.71;nan;102016.13;5017812;28;20581;-66
2022/03/01 06:27:25;;;;;;;9.65;5.90;;;1.60;99.90;;;1.68;nan;102013.59;5028652;28;20252;-67
2022/03/01 06:29:52;;;;;;;14.32;6.60;;;1.60;99.90;;;1.78;nan;102016.03;5012707;28;20369;-67
2022/03/01 06:32:19;;;;;;;11.13;6.35;;;1.70;99.90;;;2.08;nan;102019.88;5029173;28;20251;-67
2022/03/01 06:34:46;;;;;;;10.98;6.07;;;2.00;99.90;;;2.43;nan;102022.72;4999871;28;20202;-66
2022/03/01 06:37:30;;;;;;;10.55;6.07;;;2.40;99.90;;;2.68;nan;102024.03;5033580;28;20214;-67
2022/03/01 06:39:57;;;;;;;12.50;5.88;;;2.70;99.90;;;2.88;nan;102021.94;5033100;28;20233;-67
2022/03/01 06:42:24;;;;;;;11.85;6.05;;;2.90;99.90;;;3.25;nan;102016.06;5016274;28;20833;-67
2022/03/01 06:44:51;;;;;;;10.05;4.85;;;3.30;99.90;;;3.82;nan;102020.88;5028184;28;20202;-66
2022/03/01 06:47:18;;;;;;;12.15;5.88;;;4.00;99.90;;;4.63;nan;102023.22;5024408;28;20207;-67
2022/03/01 06:49:45;;;;;;;10.13;5.68;;;4.90;99.60;;;5.40;nan;102028.88;4979863;28;20655;-67
2022/03/01 06:52:14;;;;;;;11.38;5.95;;;5.90;96.60;;;6.26;nan;102033.19;5006964;28;20255;-66
2022/03/01 06:54:45;;;;;;;8.38;5.30;;;6.90;93.90;;;7.31;nan;102036.47;5031200;28;20206;-66
2022/03/01 06:57:15;;;;;;;12.60;6.32;;;7.90;90.50;;;8.11;nan;102035.16;5031263;28;20208;-67
2022/03/01 06:59:42;;;;;;;12.35;6.43;;;8.70;84.20;;;8.77;nan;102042.84;5031793;28;20206;-67
2022/03/01 07:02:09;;;;;;;13.77;6.55;;;9.40;77.10;;;9.53;nan;102034.25;5013570;28;20221;-66
2022/03/01 07:04:36;;;;;;;12.17;6.70;;;10.20;72.30;;;10.16;nan;102038.28;5018972;28;20206;-67
2022/03/01 07:07:05;;;;;;;13.90;7.20;;;10.90;67.60;;;10.84;nan;102048.75;5021531;28;20632;-67
2022/03/01 07:09:32;;;;;;;10.70;6.17;;;11.60;63.30;;;11.54;nan;102049.38;5011084;28;20661;-67
2022/03/01 07:11:59;;;;;;;11.63;5.73;;;12.20;60.50;;;12.30;nan;102051.28;5007666;28;21215;-67
2022/03/01 07:14:27;;;;;;;10.73;6.20;;;13.00;58.50;;;12.99;nan;102045.50;5014381;28;21279;-68
2022/03/01 07:16:54;;;;;;;10.80;6.33;;;13.70;55.70;;;13.16;nan;102051.44;5014652;28;20643;-67
2022/03/01 07:19:24;;;;;;;13.93;8.07;;;14.00;52.50;;;13.68;nan;102050.88;5028848;28;20640;-67
2022/03/01 07:21:51;;;;;;;11.87;7.30;;;14.40;51.10;;;14.19;nan;102059.84;5015830;28;20631;-67
2022/03/01 07:24:18;;;;;;;13.20;7.07;;;14.70;49.60;;;14.28;nan;102064.50;5061481;22;20695;-67
2022/03/01 07:26:45;;;;;;;14.87;8.20;;;14.80;48.10;;;14.05;nan;102052.00;5023578;28;20634;-69
2022/03/01 07:29:13;;;;;;;12.40;6.97;;;14.60;47.70;;;13.87;nan;102060.13;5018987;28;20673;-69
2022/03/01 07:31:40;;;;;;;16.07;8.67;;;14.20;48.00;;;12.98;nan;102059.53;5026657;28;20645;-69
2022/03/01 07:34:07;;;;;;;12.23;7.80;;;13.90;48.00;;;13.14;nan;102055.94;5025903;28;20661;-69
2022/03/01 07:36:34;;;;;;;16.60;8.60;;;13.60;49.30;;;12.51;nan;102056.22;5010629;28;20637;-70
2022/03/01 07:39:02;;;;;;;14.47;8.83;;;13.40;50.20;;;12.98;nan;102062.16;5011352;28;21217;-69
2022/03/01 07:41:29;;;;;;;13.67;8.87;;;13.60;50.70;;;13.87;nan;102056.66;5005883;28;20648;-71
2022/03/01 07:43:56;;;;;;;13.23;9.40;;;14.20;50.60;;;13.77;nan;102056.41;5010352;28;20664;-69
2022/03/01 07:46:23;;;;;;;12.83;9.17;;;14.40;50.50;;;13.70;nan;102049.84;5009677;28;20644;-71
2022/03/01 07:48:50;;;;;;;12.17;7.77;;;14.30;50.20;;;14.14;nan;102062.75;5006927;28;20658;-70
2022/03/01 07:51:17;;;;;;;11.20;8.03;;;14.60;50.00;;;15.23;nan;102060.69;5007807;28;21076;-69
2022/03/01 07:53:44;;;;;;;14.73;8.50;;;15.70;48.40;;;15.99;nan;102066.72;5010498;28;21060;-71
2022/03/01 07:56:11;;;;;;;13.13;9.33;;;16.70;46.60;;;17.29;nan;102068.28;5007931;28;20683;-70
2022/03/01 07:58:38;;;;;;;15.20;8.67;;;17.80;45.20;;;17.91;nan;102065.19;5005105;28;20636;-69
2022/03/01 08:01:05;;;;;;;15.83;9.20;;;18.70;43.60;;;18.68;nan;102067.56;4997836;28;20637;-68
2022/03/01 08:03:32;;;;;;;17.07;9.70;;;19.50;42.20;;;18.10;nan;102073.31;5010748;28;20684;-69
2022/03/01 08:05:59;;;;;;;18.27;10.00;;;19.40;41.70;;;19.53;nan;102065.63;5010182;28;20680;-69
2022/03/01 08:08:27;;;;;;;18.37;10.20;;;20.50;40.40;;;20.23;nan;102065.53;5011277;28;20668;-72
2022/03/01 08:10:54;;;;;;;15.30;10.10;;;21.40;39.50;;;20.52;nan;102063.72;5011077;28;20656;-70
2022/03/01 08:13:39;;;;;;;14.67;9.67;;;21.90;38.40;;;21.26;nan;102062.94;5011503;28;20649;-68
2022/03/01 08:16:06;;;;;;;15.33;9.77;;;22.70;37.40;;;21.40;nan;102070.41;5005659;28;20631;-70
2022/03/01 08:18:33;;;;;;;13.43;8.90;;;22.90;36.60;;;22.56;nan;102068.75;5011090;28;21053;-69
2022/03/01 08:21:01;;;;;;;13.20;8.80;;;23.80;35.70;;;22.54;nan;102070.72;5012102;28;20638;-69
2022/03/01 08:23:28;;;;;;;14.30;9.30;;;24.30;34.60;;;23.26;nan;102074.91;5006920;28;20658;-72
2022/03/01 08:25:56;;;;;;;12.20;8.93;;;24.90;34.20;;;23.79;nan;102070.22;4991183;28;20625;-69
2022/03/01 08:28:24;;;;;;;13.83;9.07;;;25.60;33.40;;;24.20;nan;102065.84;5011532;28;20677;-71
2022/03/01 08:30:53;;;;;;;15.20;9.40;;;26.00;32.70;;;24.65;nan;102067.06;5012078;28;20625;-70
2022/03/01 08:33:21;;;;;;;14.20;9.60;;;26.60;32.30;;;24.79;nan;102062.09;5011224;28;20693;-70
2022/03/01 08:35:49;;;;;;;14.57;10.00;;;27.30;31.80;;;25.15;nan;102058.03;5010565;28;20632;-69
2022/03/01 08:38:16;;;;;;;12.17;8.90;;;27.30;31.40;;;25.75;nan;102061.81;5010356;28;20625;-69
2022/03/01 08:40:44;;;;;;;14.27;10.30;;;27.80;31.40;;;26.44;nan;102074.28;4993657;28;20617;-69
2022/03/01 08:43:13;;;;;;;13.37;9.87;;;28.50;30.90;;;26.86;nan;102081.81;5011154;28;20652;-68
2022/03/01 08:45:41;;;;;;;14.47;10.03;;;29.20;30.30;;;26.71;nan;102075.56;4992039;28;20618;-68
2022/03/01 08:48:09;;;;;;;13.30;9.60;;;29.30;30.20;;;26.63;nan;102078.31;4991147;28;20654;-69
2022/03/01 08:50:36;;;;;;;14.97;10.37;;;29.20;30.00;;;27.23;nan;102084.47;5007083;28;20641;-68
2022/03/01 08:53:11;;;;;;;12.63;9.43;;;29.80;29.60;;;26.98;nan;102080.38;5010139;28;21016;-70
2022/03/01 08:55:39;;;;;;;11.47;9.40;;;29.70;29.20;;;27.45;nan;102080.88;4994143;28;21023;-67
2022/03/01 08:58:06;;;;;;;14.90;11.07;;;30.40;28.80;;;27.04;nan;102076.13;4991903;28;20615;-69
2022/03/01 09:00:33;;;;;;;16.87;10.30;;;30.10;28.80;;;28.08;nan;102082.94;4991081;28;20634;-69
2022/03/01 09:03:00;;;;;;;11.33;9.00;;;30.70;28.70;;;29.09;nan;102072.69;5001057;28;20667;-68
2022/03/01 09:05:28;;;;;;;14.97;10.10;;;31.70;28.40;;;29.35;nan;102080.13;4999263;28;20637;-70
2022/03/01 09:07:55;;;;;;;14.10;8.73;;;32.40;28.10;;;28.92;nan;102081.28;4990508;28;20642;-69
2022/03/01 09:10:24;;;;;;;11.43;8.80;;;32.10;27.90;;;29.53;nan;102083.13;4989290;28;20684;-69
2022/03/01 09:12:54;;;;;;;13.30;9.40;;;32.00;27.60;;;29.24;nan;102078.00;5008946;28;20636;-70
2022/03/01 09:15:23;;;;;;;10.77;8.70;;;31.80;27.40;;;29.61;nan;102072.19;5010253;28;20613;-69
2022/03/01 09:17:51;;;;;;;13.50;10.37;;;32.20;27.30;;;30.27;nan;102062.47;5011265;28;20671;-70
2022/03/01 09:20:19;;;;;;;16.87;10.70;;;33.40;27.30;;;30.88;nan;102063.16;5008897;28;20613;-68
2022/03/01 09:22:46;;;;;;;11.83;8.67;;;34.20;27.00;;;31.78;nan;102063.13;5010980;28;20627;-71
2022/03/01 09:25:13;;;;;;;12.37;8.97;;;35.20;26.80;;;30.35;nan;102056.91;5011217;28;20617;-68
2022/03/01 09:27:40;;;;;;;10.90;8.97;;;34.90;26.70;;;31.48;nan;102053.91;5026679;28;20655;-69
2022/03/01 09:30:08;;;;;;;15.17;10.50;;;35.00;26.40;;;31.51;nan;102049.97;5010742;28;20688;-67
2022/03/01 09:32:40;;;;;;;12.47;9.40;;;35.20;26.50;;;32.39;nan;102049.06;5013424;28;21175;-66
2022/03/01 09:35:08;;;;;;;12.40;7.27;;;35.80;26.40;;;28.81;nan;102042.34;5015193;28;20675;-67
2022/03/01 09:37:36;;;;;;;13.03;9.00;;;35.10;25.70;;;28.96;nan;102034.97;5015222;28;20622;-70
2022/03/01 09:40:05;;;;;;;13.17;9.30;;;33.10;26.30;;;28.90;nan;102027.72;5010633;28;20725;-70
2022/03/01 09:42:33;;;;;;;10.63;8.77;;;33.20;26.60;;;29.47;nan;102032.00;5014461;28;20656;-71
2022/03/01 09:45:01;;;;;;;11.53;9.07;;;33.20;26.60;;;30.69;nan;102033.53;5013357;28;20665;-68
2022/03/01 09:47:28;;;;;;;13.33;9.93;;;34.20;26.50;;;29.70;nan;102021.75;5012133;28;20979;-71
2022/03/01 09:49:55;;;;;;;13.30;9.00;;;34.30;26.10;;;31.31;nan;102017.63;5011891;28;20709;-70
2022/03/01 09:52:22;;;;;;;11.40;8.60;;;35.30;26.30;;;29.01;nan;102010.22;5013059;28;21040;-69
2022/03/01 09:54:51;;;;;;;13.70;7.70;;;33.30;26.40;;;24.31;nan;102012.19;5012162;28;20668;-71
2022/03/01 09:57:19;;;;;;;11.13;8.97;;;30.60;26.10;;;23.41;nan;102002.28;5011935;28;20636;-72
2022/03/01 09:59:47;;;;;;;14.27;9.30;;;26.90;27.40;;;21.53;nan;101998.38;5008662;28;21201;-67
2022/03/01 10:02:14;;;;;;;12.90;8.60;;;25.40;27.80;;;18.30;nan;102004.66;4996651;28;21199;-70
2022/03/01 10:04:51;;;;;;;15.47;8.57;;;21.90;30.00;;;18.11;nan;102004.50;5012401;28;20664;-69
2022/03/01 10:07:29;;;;;;;11.93;7.37;;;20.50;30.60;;;17.16;nan;101996.34;5008255;28;20637;-69
2022/03/01 10:10:10;;;;;;;3.40;2.10;;;19.40;31.50;;;15.31;nan;101998.75;5012404;28;21078;-68
2022/03/01 10:12:38;;;;;;;8.80;5.60;;;17.30;32.70;;;14.48;nan;101998.44;5010502;28;20732;-67
2022/03/01 10:15:10;;;;;;;11.87;5.30;;;16.50;33.40;;;14.76;nan;101988.56;5013085;28;21033;-70
2022/03/01 10:17:43;;;;;;;8.07;5.00;;;16.60;33.10;;;16.87;nan;101987.19;5010858;28;20637;-71
2022/03/01 10:20:12;;;;;;;7.07;4.90;;;18.90;31.90;;;17.16;nan;101995.50;5010346;28;20708;-68
2022/03/01 10:22:49;;;;;;;11.13;7.20;;;19.90;30.20;;;16.80;nan;101994.75;5012278;28;20640;-69
2022/03/01 10:25:19;;;;;;;10.50;4.70;;;19.10;30.50;;;16.97;nan;101985.56;5011930;28;20639;-70
2022/03/01 10:27:50;;;;;;;14.10;7.30;;;19.60;30.60;;;16.91;nan;101992.13;5011377;28;20625;-68
2022/03/01 10:30:31;;;;;;;14.13;8.33;;;19.50;30.90;;;18.08;nan;101994.16;5010318;28;20669;-68
2022/03/01 10:33:14;;;;;;;11.20;7.30;;;19.90;30.60;;;18.52;nan;101994.03;5006495;28;20699;-68
2022/03/01 10:35:57;;;;;;;9.60;6.70;;;20.60;30.20;;;20.22;nan;101990.47;5011287;28;20630;-68